You are listening to:
Miami FSS/Misc - Miami, Florida, United States

KMIA 241653Z 32007KT 10SM FEW250 13/04 A3006 RMK AO2 SLP180 T01330044

If stream doesn't start automatically press the play button
If stream stops then reload player then press play